createdAt,value
2022-12-13T00:00:20.340Z,0.96
2022-12-13T00:03:08.205Z,0.82
2022-12-13T00:05:54.710Z,0.88
2022-12-13T00:08:41.848Z,0.82
2022-12-13T00:11:28.608Z,0.88
2022-12-13T00:14:14.469Z,0.80
2022-12-13T00:17:00.256Z,0.86
2022-12-13T00:19:48.127Z,0.85
2022-12-13T00:22:33.729Z,0.87
2022-12-13T00:25:22.105Z,0.85
2022-12-13T00:28:08.737Z,0.77
2022-12-13T00:31:27.007Z,0.71
2022-12-13T00:34:07.990Z,0.72
2022-12-13T00:36:55.104Z,0.74
2022-12-13T00:39:41.143Z,0.69
2022-12-13T00:42:26.783Z,0.77
2022-12-13T00:45:12.379Z,0.54
2022-12-13T00:47:58.133Z,0.74
2022-12-13T00:50:43.761Z,0.70
2022-12-13T00:53:29.270Z,0.42
2022-12-13T00:56:36.792Z,0.38
2022-12-13T00:59:22.202Z,0.40
2022-12-13T01:02:07.882Z,0.56
2022-12-13T01:04:53.768Z,0.58
2022-12-13T01:07:44.430Z,0.43
2022-12-13T01:10:30.443Z,0.65
2022-12-13T01:13:15.969Z,0.36
2022-12-13T01:16:05.494Z,0.46
2022-12-13T01:18:51.420Z,0.60
2022-12-13T01:21:38.306Z,0.44
2022-12-13T01:24:26.193Z,0.62
2022-12-13T01:27:12.177Z,0.48
2022-12-13T01:29:57.535Z,0.61
2022-12-13T01:32:42.907Z,0.49
2022-12-13T01:35:28.369Z,0.36
2022-12-13T01:38:15.660Z,0.44
2022-12-13T01:41:02.552Z,0.14
2022-12-13T01:44:06.618Z,0.32
2022-12-13T01:46:54.082Z,0.15
2022-12-13T01:49:40.059Z,0.13
2022-12-13T01:52:28.439Z,0.18
2022-12-13T01:55:18.546Z,0.12
2022-12-13T01:58:05.994Z,0.00
2022-12-13T02:00:52.461Z,-0.17
2022-12-13T02:03:38.129Z,-0.04
2022-12-13T02:06:47.543Z,-0.28
2022-12-13T02:09:36.099Z,-0.24
2022-12-13T02:12:21.997Z,-0.09
2022-12-13T02:15:18.929Z,0.00
2022-12-13T02:18:25.719Z,-0.18
2022-12-13T02:21:42.930Z,-0.15
2022-12-13T02:25:03.705Z,-0.17
2022-12-13T02:28:43.104Z,-0.12
2022-12-13T02:31:49.093Z,-0.13
2022-12-13T02:34:57.821Z,-0.22
2022-12-13T02:38:29.511Z,-0.19
2022-12-13T02:41:51.353Z,-0.21
2022-12-13T02:44:47.178Z,-0.37
2022-12-13T02:47:37.597Z,-0.48
2022-12-13T02:50:26.175Z,-0.48
2022-12-13T02:53:15.306Z,-0.41
2022-12-13T02:56:01.120Z,-0.59
2022-12-13T02:58:54.471Z,-0.49
2022-12-13T03:02:31.486Z,-0.79
2022-12-13T03:06:13.894Z,-0.82
2022-12-13T03:09:33.900Z,-0.86
2022-12-13T03:12:50.446Z,-0.71
2022-12-13T03:15:56.502Z,-0.83
2022-12-13T03:18:43.453Z,-0.71
2022-12-13T03:21:30.007Z,-0.69
2022-12-13T03:24:21.825Z,-0.61
2022-12-13T03:27:07.609Z,-0.56
2022-12-13T03:29:53.142Z,-0.61
2022-12-13T03:32:38.709Z,-0.91
2022-12-13T03:35:25.107Z,-0.81
2022-12-13T03:38:21.800Z,-0.90
2022-12-13T03:41:17.751Z,-0.97
2022-12-13T03:44:08.650Z,-1.15
2022-12-13T03:46:54.253Z,-0.96
2022-12-13T03:49:39.754Z,-1.00
2022-12-13T03:52:25.447Z,-1.11
2022-12-13T03:55:11.274Z,-1.22
2022-12-13T03:57:57.116Z,-1.08
2022-12-13T04:00:42.703Z,-0.89
2022-12-13T04:03:28.863Z,-1.01
2022-12-13T04:06:21.626Z,-1.07
2022-12-13T04:09:08.509Z,-1.11
2022-12-13T04:12:15.689Z,-1.02
2022-12-13T04:15:01.361Z,-0.92
2022-12-13T04:17:51.216Z,-0.96
2022-12-13T04:20:37.114Z,-0.97
2022-12-13T04:23:23.488Z,-1.05
2022-12-13T04:26:09.429Z,-0.99
2022-12-13T04:28:55.110Z,-1.00
2022-12-13T04:31:40.864Z,-0.90
2022-12-13T04:34:28.047Z,-0.80
2022-12-13T04:37:16.670Z,-0.79
2022-12-13T04:40:02.406Z,-0.84
2022-12-13T04:42:47.999Z,-0.70
2022-12-13T04:45:39.796Z,-0.90
2022-12-13T04:48:30.682Z,-0.87
2022-12-13T04:51:17.265Z,-1.10
2022-12-13T04:54:23.484Z,-0.89
2022-12-13T04:57:11.632Z,-0.85
2022-12-13T04:59:57.601Z,-0.85
2022-12-13T05:02:43.664Z,-0.87
2022-12-13T05:05:29.326Z,-0.99
2022-12-13T05:08:14.961Z,-0.97
2022-12-13T05:11:00.863Z,-0.95
2022-12-13T05:13:46.384Z,-0.73
2022-12-13T05:16:31.793Z,-0.77
2022-12-13T05:19:17.512Z,-0.93
2022-12-13T05:22:02.987Z,-0.80
2022-12-13T05:24:49.055Z,-0.78
2022-12-13T05:27:34.506Z,-1.08
2022-12-13T05:30:20.686Z,-1.12
2022-12-13T05:33:06.122Z,-1.03
2022-12-13T05:35:57.699Z,-1.21
2022-12-13T05:38:46.043Z,-1.15
2022-12-13T05:41:35.871Z,-1.44
2022-12-13T05:44:21.492Z,-1.20
2022-12-13T05:47:06.940Z,-1.40
2022-12-13T05:49:52.474Z,-1.25
2022-12-13T05:52:38.018Z,-1.21
2022-12-13T05:55:23.887Z,-1.39
2022-12-13T05:58:13.274Z,-1.26
2022-12-13T06:01:12.994Z,-1.26
2022-12-13T06:03:58.848Z,-1.29
2022-12-13T06:06:44.913Z,-1.49
2022-12-13T06:09:30.951Z,-1.40
2022-12-13T06:12:31.422Z,-1.38
2022-12-13T06:15:22.421Z,-1.41
2022-12-13T06:18:08.641Z,-1.31
2022-12-13T06:21:00.276Z,-1.22
2022-12-13T06:23:46.242Z,-1.28
2022-12-13T06:26:31.855Z,-0.93
2022-12-13T06:29:24.226Z,-1.08
2022-12-13T06:32:11.592Z,-1.14
2022-12-13T06:34:57.748Z,-1.10
2022-12-13T06:37:43.328Z,-0.79
2022-12-13T06:40:33.841Z,-0.95
2022-12-13T06:43:21.322Z,-0.92
2022-12-13T06:46:07.181Z,-0.87
2022-12-13T06:48:55.007Z,-1.17
2022-12-13T06:51:40.548Z,-0.89
2022-12-13T06:54:26.162Z,-1.05
2022-12-13T06:57:12.938Z,-0.81
2022-12-13T06:59:58.437Z,-1.11
2022-12-13T07:02:43.922Z,-0.85
2022-12-13T07:05:29.663Z,-1.03
2022-12-13T07:08:22.141Z,-1.10
2022-12-13T07:11:13.490Z,-1.08
2022-12-13T07:14:00.117Z,-0.90
2022-12-13T07:16:45.769Z,-1.07
2022-12-13T07:19:35.330Z,-0.90
2022-12-13T07:22:21.487Z,-0.85
2022-12-13T07:25:07.775Z,-1.06
2022-12-13T07:28:13.285Z,-0.88
2022-12-13T07:31:02.414Z,-1.11
2022-12-13T07:33:47.814Z,-0.80
2022-12-13T07:36:33.307Z,-0.61
2022-12-13T07:39:19.220Z,-0.69
2022-12-13T07:42:04.750Z,-1.03
2022-12-13T07:44:49.983Z,-0.78
2022-12-13T07:47:35.491Z,-0.71
2022-12-13T07:50:23.973Z,-0.86
2022-12-13T07:53:11.681Z,-0.68
2022-12-13T07:55:57.323Z,-0.60
2022-12-13T07:58:44.088Z,-0.48
2022-12-13T08:01:34.554Z,-0.66
2022-12-13T08:04:20.486Z,-0.45
2022-12-13T08:07:09.996Z,-0.55
2022-12-13T08:09:55.776Z,-0.47
2022-12-13T08:12:41.309Z,-0.37
2022-12-13T08:15:26.801Z,-0.33
2022-12-13T08:18:12.275Z,-0.29
2022-12-13T08:21:23.917Z,-0.43
2022-12-13T08:24:15.689Z,-0.19
2022-12-13T08:27:03.283Z,-0.16
2022-12-13T08:29:49.296Z,-0.48
2022-12-13T08:32:34.684Z,-0.40
2022-12-13T08:35:19.989Z,-0.35
2022-12-13T08:38:05.575Z,-0.60
2022-12-13T08:40:51.404Z,0.02
2022-12-13T08:43:37.792Z,-0.20
2022-12-13T08:46:23.212Z,-0.16
2022-12-13T08:49:08.618Z,-0.09
2022-12-13T08:51:54.503Z,-0.40
2022-12-13T08:54:39.800Z,-0.17
2022-12-13T08:57:25.376Z,-0.40
2022-12-13T09:00:19.900Z,0.06
2022-12-13T09:03:09.836Z,0.04
2022-12-13T09:06:10.538Z,0.06
2022-12-13T09:08:56.163Z,0.22
2022-12-13T09:11:42.109Z,0.35
2022-12-13T09:14:33.650Z,0.38
2022-12-13T09:17:24.069Z,0.37
2022-12-13T09:20:29.766Z,0.88
2022-12-13T09:23:24.139Z,0.74
2022-12-13T09:26:16.434Z,0.51
2022-12-13T09:29:10.759Z,0.94
2022-12-13T09:31:57.936Z,0.89
2022-12-13T09:34:43.473Z,1.06
2022-12-13T09:37:32.175Z,1.19
2022-12-13T09:40:26.646Z,1.06
2022-12-13T09:43:32.031Z,1.22
2022-12-13T09:46:44.688Z,1.38
2022-12-13T09:49:36.998Z,1.04
2022-12-13T09:52:25.800Z,1.02
2022-12-13T09:55:30.264Z,1.03
2022-12-13T09:58:26.371Z,0.59
2022-12-13T10:01:12.528Z,0.60
2022-12-13T10:04:00.483Z,0.63
2022-12-13T10:06:46.190Z,0.54
2022-12-13T10:09:32.432Z,0.69
2022-12-13T10:12:18.161Z,0.71
2022-12-13T10:15:04.713Z,0.52
2022-12-13T10:17:55.241Z,0.71
2022-12-13T10:20:42.287Z,0.87
2022-12-13T10:23:42.810Z,0.70
2022-12-13T10:26:39.129Z,0.66
2022-12-13T10:29:24.561Z,0.79
2022-12-13T10:32:13.810Z,0.74
2022-12-13T10:34:59.281Z,0.71
2022-12-13T10:37:44.799Z,0.76
2022-12-13T10:40:48.827Z,0.78
2022-12-13T10:43:36.096Z,0.90
2022-12-13T10:46:24.827Z,0.73
2022-12-13T10:49:25.223Z,1.11
2022-12-13T10:52:33.674Z,1.04
2022-12-13T10:55:28.902Z,1.04
2022-12-13T10:58:19.938Z,1.02
2022-12-13T11:01:21.509Z,1.21
2022-12-13T11:04:34.699Z,1.37
2022-12-13T11:07:34.186Z,1.10
2022-12-13T11:10:29.747Z,1.23
2022-12-13T11:13:44.799Z,1.38
2022-12-13T11:16:40.619Z,1.41
2022-12-13T11:19:48.025Z,1.22
2022-12-13T11:22:38.413Z,1.18
2022-12-13T11:25:30.692Z,1.07
2022-12-13T11:28:31.845Z,1.48
2022-12-13T11:32:13.123Z,1.49
2022-12-13T11:36:00.680Z,1.41
2022-12-13T11:39:13.205Z,1.50
2022-12-13T11:42:27.892Z,1.11
2022-12-13T11:45:31.820Z,1.09
2022-12-13T11:48:20.333Z,1.29
2022-12-13T11:51:11.239Z,1.53
2022-12-13T11:54:09.272Z,1.01
2022-12-13T11:57:00.086Z,1.43
2022-12-13T12:00:02.663Z,1.35
2022-12-13T12:02:56.847Z,1.68
2022-12-13T12:05:55.760Z,1.42
2022-12-13T12:09:01.899Z,1.43
2022-12-13T12:12:22.004Z,1.46
2022-12-13T12:15:26.481Z,1.25
2022-12-13T12:18:17.197Z,1.56
2022-12-13T12:21:05.039Z,1.84
2022-12-13T12:24:26.956Z,1.56
2022-12-13T12:27:26.119Z,1.60
2022-12-13T12:30:23.026Z,1.51
2022-12-13T12:33:49.766Z,1.58
2022-12-13T12:37:02.889Z,1.43
2022-12-13T12:40:22.608Z,1.65
2022-12-13T12:43:25.891Z,1.41
2022-12-13T12:46:52.371Z,1.50
2022-12-13T12:50:16.806Z,1.40
2022-12-13T12:53:40.415Z,1.34
2022-12-13T12:56:57.190Z,1.21
2022-12-13T13:00:24.298Z,1.16
2022-12-13T13:03:26.519Z,1.00
2022-12-13T13:06:40.669Z,1.13
2022-12-13T13:09:27.344Z,1.01
2022-12-13T13:12:28.907Z,1.03
2022-12-13T13:15:33.430Z,0.67
2022-12-13T13:18:51.920Z,0.89
2022-12-13T13:22:02.473Z,0.76
2022-12-13T13:25:26.067Z,0.87
2022-12-13T13:28:17.896Z,0.58
2022-12-13T13:31:09.275Z,0.65
2022-12-13T13:33:54.827Z,0.90
2022-12-13T13:36:41.115Z,0.83
2022-12-13T13:39:29.460Z,0.72
2022-12-13T13:42:15.061Z,0.70
2022-12-13T13:45:23.619Z,0.63
2022-12-13T13:49:09.656Z,0.39
2022-12-13T13:52:25.325Z,0.49
2022-12-13T13:55:45.571Z,0.59
2022-12-13T13:59:13.397Z,0.37
2022-12-13T14:02:41.839Z,0.35
2022-12-13T14:06:02.686Z,0.37
2022-12-13T14:09:23.579Z,0.09
2022-12-13T14:13:13.565Z,0.17
2022-12-13T14:16:06.455Z,0.40
2022-12-13T14:19:06.717Z,0.35
2022-12-13T14:22:10.160Z,0.24
2022-12-13T14:25:27.685Z,0.35
2022-12-13T14:28:13.564Z,0.30
2022-12-13T14:30:47.789Z,0.27
2022-12-13T14:33:26.600Z,0.33
2022-12-13T14:35:56.329Z,0.49
2022-12-13T14:38:27.037Z,0.35
2022-12-13T14:41:00.037Z,0.43
2022-12-13T14:43:33.130Z,0.27
2022-12-13T14:46:07.240Z,0.21
2022-12-13T14:48:53.774Z,0.32
2022-12-13T14:51:38.310Z,0.28
2022-12-13T14:54:25.925Z,-0.01
2022-12-13T14:57:04.959Z,0.26
2022-12-13T14:59:33.596Z,0.37
2022-12-13T15:02:04.892Z,0.28
2022-12-13T15:04:36.054Z,0.30
2022-12-13T15:07:07.612Z,0.11
2022-12-13T15:09:44.567Z,0.24
2022-12-13T15:12:24.682Z,0.40
2022-12-13T15:15:03.053Z,0.16
2022-12-13T15:17:40.860Z,0.03
2022-12-13T15:20:32.050Z,0.04
2022-12-13T15:23:19.433Z,0.00
2022-12-13T15:25:59.140Z,-0.02
2022-12-13T15:28:34.583Z,0.07
2022-12-13T15:31:04.583Z,0.05
2022-12-13T15:33:36.546Z,-0.02
2022-12-13T15:36:23.629Z,-0.22
2022-12-13T15:38:56.483Z,-0.22
2022-12-13T15:41:33.899Z,-0.22
2022-12-13T15:44:08.095Z,-0.18
2022-12-13T15:46:38.235Z,-0.41
2022-12-13T15:49:23.571Z,-0.19
2022-12-13T15:51:57.474Z,-0.42
2022-12-13T15:54:24.899Z,-0.18
2022-12-13T15:57:15.820Z,-0.15
2022-12-13T15:59:44.555Z,-0.19
2022-12-13T16:02:23.519Z,0.02
2022-12-13T16:04:51.517Z,0.04
2022-12-13T16:07:40.297Z,0.07
2022-12-13T16:10:08.959Z,0.16
2022-12-13T16:12:47.879Z,0.23
2022-12-13T16:15:49.404Z,0.09
2022-12-13T16:18:32.124Z,0.38
2022-12-13T16:20:59.933Z,0.41
2022-12-13T16:23:27.688Z,0.34
2022-12-13T16:25:55.337Z,0.20
2022-12-13T16:28:25.920Z,0.38
2022-12-13T16:30:53.267Z,0.31
2022-12-13T16:33:30.529Z,0.17
2022-12-13T16:36:00.080Z,0.17
2022-12-13T16:38:30.165Z,0.16
2022-12-13T16:41:00.841Z,0.39
2022-12-13T16:43:52.835Z,0.34
2022-12-13T16:47:14.732Z,0.16
2022-12-13T16:49:21.167Z,-0.03
2022-12-13T16:51:55.044Z,0.17
2022-12-13T16:54:26.326Z,0.26
2022-12-13T16:56:54.580Z,0.12
2022-12-13T16:59:27.055Z,0.19
2022-12-13T17:01:54.747Z,0.15
2022-12-13T17:04:24.653Z,-0.23
2022-12-13T17:06:55.081Z,0.34
2022-12-13T17:09:24.344Z,0.09
2022-12-13T17:11:51.562Z,0.06
2022-12-13T17:14:20.826Z,0.11
2022-12-13T17:16:48.001Z,0.32
2022-12-13T17:19:15.804Z,0.21
2022-12-13T17:21:43.147Z,0.26
2022-12-13T17:24:10.282Z,0.31
2022-12-13T17:26:37.290Z,0.40
2022-12-13T17:29:04.740Z,0.18
2022-12-13T17:31:35.691Z,0.23
2022-12-13T17:34:04.519Z,0.24
2022-12-13T17:36:34.123Z,0.10
2022-12-13T17:39:03.973Z,0.14
2022-12-13T17:41:31.067Z,0.16
2022-12-13T17:44:01.291Z,0.18
2022-12-13T17:46:28.472Z,0.11
2022-12-13T17:48:55.487Z,0.00
2022-12-13T17:51:22.681Z,0.08
2022-12-13T17:53:49.685Z,0.26
2022-12-13T17:56:17.732Z,0.16
2022-12-13T17:58:45.039Z,0.18
2022-12-13T18:01:26.631Z,0.33
2022-12-13T18:03:57.809Z,0.53
2022-12-13T18:06:26.243Z,0.49
2022-12-13T18:08:53.603Z,0.18
2022-12-13T18:11:33.010Z,-0.03
2022-12-13T18:14:02.246Z,0.04
2022-12-13T18:16:36.214Z,-0.14
2022-12-13T18:19:12.293Z,0.11
2022-12-13T18:21:43.641Z,0.07
2022-12-13T18:24:12.355Z,0.13
2022-12-13T18:26:39.479Z,0.11
2022-12-13T18:29:06.718Z,0.04
2022-12-13T18:31:33.851Z,0.23
2022-12-13T18:34:00.992Z,0.31
2022-12-13T18:36:28.329Z,0.39
2022-12-13T18:38:55.642Z,0.27
2022-12-13T18:41:28.227Z,0.05
2022-12-13T18:44:08.172Z,0.39
2022-12-13T18:46:38.213Z,0.12
2022-12-13T18:49:06.746Z,0.09
2022-12-13T18:51:34.254Z,0.14
2022-12-13T18:54:01.378Z,0.24
2022-12-13T18:56:28.481Z,0.09
2022-12-13T18:58:59.535Z,0.08
2022-12-13T19:01:28.134Z,0.21
2022-12-13T19:03:55.417Z,0.27
2022-12-13T19:06:27.620Z,0.40
2022-12-13T19:08:56.610Z,0.41
2022-12-13T19:11:26.346Z,0.21
2022-12-13T19:13:53.982Z,0.18
2022-12-13T19:16:26.166Z,0.33
2022-12-13T19:18:57.422Z,0.34
2022-12-13T19:21:24.546Z,-0.14
2022-12-13T19:23:57.304Z,0.14
2022-12-13T19:26:25.423Z,0.24
2022-12-13T19:28:52.437Z,0.40
2022-12-13T19:31:25.564Z,0.34
2022-12-13T19:34:02.361Z,0.26
2022-12-13T19:36:32.186Z,-0.02
2022-12-13T19:38:59.381Z,-0.03
2022-12-13T19:41:26.635Z,-0.14
2022-12-13T19:43:55.897Z,0.05
2022-12-13T19:46:23.040Z,0.13
2022-12-13T19:48:51.064Z,0.00
2022-12-13T19:51:18.478Z,-0.02
2022-12-13T19:53:45.503Z,0.11
2022-12-13T19:56:17.814Z,-0.21
2022-12-13T19:58:47.115Z,-0.02
2022-12-13T20:01:17.453Z,-0.26
2022-12-13T20:03:46.481Z,-0.46
2022-12-13T20:06:18.458Z,-0.35
2022-12-13T20:08:46.482Z,-0.43
2022-12-13T20:11:21.202Z,-0.85
2022-12-13T20:13:52.719Z,-0.78
2022-12-13T20:16:24.451Z,-1.02
2022-12-13T20:18:59.914Z,-0.93
2022-12-13T20:21:28.710Z,-1.21
2022-12-13T20:23:56.529Z,-1.33
2022-12-13T20:26:29.666Z,-1.10
2022-12-13T20:28:56.991Z,-0.98
2022-12-13T20:31:31.154Z,-1.19
2022-12-13T20:34:02.333Z,-1.21
2022-12-13T20:36:32.907Z,-1.48
2022-12-13T20:39:02.197Z,-1.41
2022-12-13T20:41:34.610Z,-1.41
2022-12-13T20:44:04.957Z,-1.68
2022-12-13T20:46:32.670Z,-1.70
2022-12-13T20:49:06.324Z,-1.87
2022-12-13T20:51:34.937Z,-1.77
2022-12-13T20:54:05.464Z,-1.76
2022-12-13T20:56:35.921Z,-1.91
2022-12-13T20:59:08.749Z,-1.66
2022-12-13T21:01:41.010Z,-1.96
2022-12-13T21:04:11.175Z,-1.80
2022-12-13T21:06:42.869Z,-1.65
2022-12-13T21:09:11.563Z,-1.88
2022-12-13T21:11:44.089Z,-1.91
2022-12-13T21:14:22.251Z,-2.03
2022-12-13T21:17:00.235Z,-1.94
2022-12-13T21:19:39.450Z,-1.94
2022-12-13T21:22:07.213Z,-2.37
2022-12-13T21:24:34.395Z,-2.05
2022-12-13T21:27:01.542Z,-1.89
2022-12-13T21:29:28.685Z,-2.02
2022-12-13T21:31:56.185Z,-2.04
2022-12-13T21:34:23.711Z,-2.02
2022-12-13T21:36:52.755Z,-1.99
2022-12-13T21:39:23.348Z,-2.20
2022-12-13T21:41:51.594Z,-2.15
2022-12-13T21:44:19.538Z,-2.15
2022-12-13T21:47:22.300Z,-2.17
2022-12-13T21:49:35.538Z,-2.34
2022-12-13T21:52:02.681Z,-2.21
2022-12-13T21:54:29.720Z,-2.38
2022-12-13T21:57:15.165Z,-2.63
2022-12-13T21:59:42.225Z,-2.48
2022-12-13T22:02:18.702Z,-2.41
2022-12-13T22:04:51.016Z,-2.38
2022-12-13T22:07:32.544Z,-2.33
2022-12-13T22:10:01.573Z,-2.47
2022-12-13T22:12:38.488Z,-2.48
2022-12-13T22:15:15.990Z,-2.49
2022-12-13T22:17:43.436Z,-2.64
2022-12-13T22:20:14.286Z,-2.57
2022-12-13T22:22:44.237Z,-2.66
2022-12-13T22:25:11.500Z,-2.64
2022-12-13T22:27:38.687Z,-2.59
2022-12-13T22:30:06.804Z,-2.69
2022-12-13T22:32:34.036Z,-2.73
2022-12-13T22:35:04.850Z,-2.67
2022-12-13T22:37:33.331Z,-2.70
2022-12-13T22:40:08.378Z,-2.81
2022-12-13T22:42:35.796Z,-3.00
2022-12-13T22:45:03.019Z,-2.75
2022-12-13T22:47:32.698Z,-3.26
2022-12-13T22:49:59.802Z,-2.95
2022-12-13T22:52:32.008Z,-3.04
2022-12-13T22:55:00.881Z,-3.11
2022-12-13T22:57:27.957Z,-2.98
2022-12-13T22:59:55.053Z,-2.91
2022-12-13T23:02:24.595Z,-2.94
2022-12-13T23:04:51.785Z,-2.95
2022-12-13T23:07:18.892Z,-3.11
2022-12-13T23:09:46.178Z,-2.95
2022-12-13T23:12:31.618Z,-3.06
2022-12-13T23:14:58.749Z,-3.01
2022-12-13T23:17:25.870Z,-3.20
2022-12-13T23:19:53.636Z,-3.10
2022-12-13T23:22:25.664Z,-3.15
2022-12-13T23:24:56.282Z,-3.21
2022-12-13T23:27:24.452Z,-3.33
2022-12-13T23:29:51.640Z,-3.37
2022-12-13T23:32:19.006Z,-3.27
2022-12-13T23:34:48.571Z,-3.38
2022-12-13T23:37:15.807Z,-3.29
2022-12-13T23:39:42.985Z,-3.28
2022-12-13T23:42:11.198Z,-3.26
2022-12-13T23:44:38.315Z,-3.36
2022-12-13T23:47:05.396Z,-3.42
2022-12-13T23:49:34.664Z,-3.68
2022-12-13T23:52:01.654Z,-3.49
2022-12-13T23:54:31.108Z,-3.76
2022-12-13T23:56:58.286Z,-3.69
2022-12-13T23:59:27.257Z,-3.68
